Map

Track Data

SID SEASON NUMBER BASIN SUBBASIN NAME ISO_TIME NATURE LAT LON WMO_WIND WMO_PRES WMO_AGENCY TRACK_TYPE DIST2LAND LANDFALL IFLAG USA_AGENCY USA_ATCF_ID USA_LAT USA_LON USA_RECORD USA_STATUS USA_WIND USA_PRES USA_SSHS USA_R34_NE USA_R34_SE USA_R34_SW USA_R34_NW USA_R50_NE USA_R50_SE USA_R50_SW USA_R50_NW USA_R64_NE USA_R64_SE USA_R64_SW USA_R64_NW USA_POCI USA_ROCI USA_RMW USA_EYE TOKYO_LAT TOKYO_LON TOKYO_GRADE TOKYO_WIND TOKYO_PRES TOKYO_R50_DIR TOKYO_R50_LONG TOKYO_R50_SHORT TOKYO_R30_DIR TOKYO_R30_LONG TOKYO_R30_SHORT TOKYO_LAND CMA_LAT CMA_LON CMA_CAT CMA_WIND CMA_PRES HKO_LAT HKO_LON HKO_CAT HKO_WIND HKO_PRES NEWDELHI_LAT NEWDELHI_LON NEWDELHI_GRADE NEWDELHI_WIND NEWDELHI_PRES NEWDELHI_CI NEWDELHI_DP NEWDELHI_POCI REUNION_LAT REUNION_LON REUNION_TYPE REUNION_WIND REUNION_PRES REUNION_TNUM REUNION_CI REUNION_RMW REUNION_R34_NE REUNION_R34_SE REUNION_R34_SW REUNION_R34_NW REUNION_R50_NE REUNION_R50_SE REUNION_R50_SW REUNION_R50_NW REUNION_R64_NE REUNION_R64_SE REUNION_R64_SW REUNION_R64_NW BOM_LAT BOM_LON BOM_TYPE BOM_WIND BOM_PRES BOM_TNUM BOM_CI BOM_RMW BOM_R34_NE BOM_R34_SE BOM_R34_SW BOM_R34_NW BOM_R50_NE BOM_R50_SE BOM_R50_SW BOM_R50_NW BOM_R64_NE BOM_R64_SE BOM_R64_SW BOM_R64_NW BOM_ROCI BOM_POCI BOM_EYE BOM_POS_METHOD BOM_PRES_METHOD NADI_LAT NADI_LON NADI_CAT NADI_WIND NADI_PRES WELLINGTON_LAT WELLINGTON_LON WELLINGTON_WIND WELLINGTON_PRES DS824_LAT DS824_LON DS824_STAGE DS824_WIND DS824_PRES TD9636_LAT TD9636_LON TD9636_STAGE TD9636_WIND TD9636_PRES TD9635_LAT TD9635_LON TD9635_WIND TD9635_PRES TD9635_ROCI NEUMANN_LAT NEUMANN_LON NEUMANN_CLASS NEUMANN_WIND NEUMANN_PRES MLC_LAT MLC_LON MLC_CLASS MLC_WIND MLC_PRES USA_GUST BOM_GUST BOM_GUST_PER REUNION_GUST REUNION_GUST_PER USA_SEAHGT USA_SEARAD_NE USA_SEARAD_SE USA_SEARAD_SW USA_SEARAD_NW STORM_SPEED STORM_DIR
1910317N11129 1910 52 WP MM NOT_NAMED 1910-11-12 16:00:00 NR 11.0000 128.800 main 327 231 __________O___ -1 11.0000 128.800 2 29 287
1910317N11129 1910 52 WP MM NOT_NAMED 1910-11-12 18:00:00 NR 11.2841 127.866 main 231 103 __________P___ -1 11.2841 127.866 2 28 287
1910317N11129 1910 52 WP MM NOT_NAMED 1910-11-12 21:00:00 NR 11.6883 126.511 main 103 0 __________P___ -1 11.6883 126.511 2 26 287
1910317N11129 1910 52 WP MM NOT_NAMED 1910-11-13 00:00:00 NR 12.0435 125.287 main 0 0 __________P___ -1 12.0435 125.287 2 23 286
1910317N11129 1910 52 WP MM NOT_NAMED 1910-11-13 03:00:00 NR 12.3260 124.276 main 10 11 __________P___ -1 12.3260 124.276 2 20 286
1910317N11129 1910 52 WP MM NOT_NAMED 1910-11-13 04:00:00 NR 12.4000 124.000 main 15 10 __________O___ -1 12.4000 124.000 4 15 285
1910317N11129 1910 52 WP MM NOT_NAMED 1910-11-13 06:00:00 NR 12.5160 123.550 main 10 0 __________P___ -1 12.5160 123.550 4 11 284
1910317N11129 1910 52 WP MM NOT_NAMED 1910-11-13 09:00:00 NR 12.6290 123.077 main 24 24 __________P___ -1 12.6290 123.077 4 8 284
1910317N11129 1910 52 WP MM NOT_NAMED 1910-11-13 12:00:00 NR 12.7021 122.758 main 57 44 __________P___ -1 12.7021 122.758 4 6 284
1910317N11129 1910 52 WP MM NOT_NAMED 1910-11-13 15:00:00 NR 12.7715 122.494 main 46 46 __________P___ -1 12.7715 122.494 4 5 286
1910317N11129 1910 52 WP MM NOT_NAMED 1910-11-13 16:00:00 NR 12.8000 122.400 main 49 49 __________O___ -1 12.8000 122.400 4 7 289
1910317N11129 1910 52 WP MM NOT_NAMED 1910-11-13 18:00:00 NR 12.8910 122.141 main 63 32 __________P___ -1 12.8910 122.141 4 8 291
1910317N11129 1910 52 WP MM NOT_NAMED 1910-11-13 21:00:00 NR 13.0402 121.753 main 32 0 __________P___ -1 13.0402 121.753 4 8 292
1910317N11129 1910 52 WP MM NOT_NAMED 1910-11-14 00:00:00 NR 13.1966 121.357 main 0 0 __________P___ -1 13.1966 121.357 4 8 291
1910317N11129 1910 52 WP MM NOT_NAMED 1910-11-14 03:00:00 NR 13.3507 120.943 main 0 0 __________P___ -1 13.3507 120.943 4 9 291
1910317N11129 1910 52 WP MM NOT_NAMED 1910-11-14 04:00:00 NR 13.4000 120.800 main 0 0 __________O___ -1 13.4000 120.800 4 9 288
1910317N11129 1910 52 WP MM NOT_NAMED 1910-11-14 06:00:00 NR 13.4889 120.506 main 11 11 __________P___ -1 13.4889 120.506 4 9 286
1910317N11129 1910 52 WP MM NOT_NAMED 1910-11-14 09:00:00 NR 13.6160 120.045 main 39 39 __________P___ -1 13.6160 120.045 4 9 285
1910317N11129 1910 52 WP MM NOT_NAMED 1910-11-14 12:00:00 NR 13.7385 119.565 main 82 92 __________P___ -1 13.7385 119.565 4 10 284
1910317N11129 1910 52 WP MM NOT_NAMED 1910-11-14 15:00:00 NR 13.8594 119.069 main 141 151 __________P___ -1 13.8594 119.069 4 10 284
1910317N11129 1910 52 WP MM NOT_NAMED 1910-11-14 16:00:00 NR 13.9000 118.900 main 161 161 __________O___ -1 13.9000 118.900 4 10 284
1910317N11129 1910 52 WP MM NOT_NAMED 1910-11-14 18:00:00 NR 13.9860 118.548 main 194 194 __________P___ -1 13.9860 118.548 4 11 284
1910317N11129 1910 52 WP MM NOT_NAMED 1910-11-14 21:00:00 NR 14.1151 118.008 main 239 239 __________P___ -1 14.1151 118.008 4 11 284
1910317N11129 1910 52 WP MM NOT_NAMED 1910-11-15 00:00:00 NR 14.2414 117.471 main 287 295 __________P___ -1 14.2414 117.471 4 10 284
1910317N11129 1910 52 WP MM NOT_NAMED 1910-11-15 03:00:00 NR 14.3617 116.961 main 331 341 __________P___ -1 14.3617 116.961 4 10 284
1910317N11129 1910 52 WP MM NOT_NAMED 1910-11-15 04:00:00 NR 14.4000 116.800 main 351 351 __________O___ -1 14.4000 116.800 4 9 285
1910317N11129 1910 52 WP MM NOT_NAMED 1910-11-15 06:00:00 NR 14.4798 116.507 main 379 379 __________P___ -1 14.4798 116.507 4 8 286
1910317N11129 1910 52 WP MM NOT_NAMED 1910-11-15 09:00:00 NR 14.5937 116.100 main 416 416 __________P___ -1 14.5937 116.100 4 8 286
1910317N11129 1910 52 WP MM NOT_NAMED 1910-11-15 12:00:00 NR 14.6951 115.714 main 453 453 __________P___ -1 14.6951 115.714 4 8 284
1910317N11129 1910 52 WP MM NOT_NAMED 1910-11-15 15:00:00 NR 14.7778 115.331 main 490 490 __________P___ -1 14.7778 115.331 4 8 282
1910317N11129 1910 52 WP MM NOT_NAMED 1910-11-15 16:00:00 NR 14.8000 115.200 main 500 500 __________O___ -1 14.8000 115.200 4 8 280
1910317N11129 1910 52 WP MM NOT_NAMED 1910-11-15 18:00:00 NR 14.8441 114.925 main 531 529 __________P___ -1 14.8441 114.925 4 8 278
1910317N11129 1910 52 WP MM NOT_NAMED 1910-11-15 21:00:00 NR 14.8917 114.506 main 570 529 __________P___ -1 14.8917 114.506 4 8 275
1910317N11129 1910 52 WP MM NOT_NAMED 1910-11-16 00:00:00 NR 14.9143 114.080 main 529 476 __________P___ -1 14.9143 114.080 4 8 271
1910317N11129 1910 52 WP MM NOT_NAMED 1910-11-16 03:00:00 NR 14.9087 113.646 main 476 466 __________P___ -1 14.9087 113.646 4 8 269
1910317N11129 1910 52 WP MM NOT_NAMED 1910-11-16 04:00:00 NR 14.9000 113.500 main 466 434 __________O___ -1 14.9000 113.500 4 8 267
1910317N11129 1910 52 WP MM NOT_NAMED 1910-11-16 06:00:00 NR 14.8831 113.211 main 434 390 __________P___ -1 14.8831 113.211 4 8 265
1910317N11129 1910 52 WP MM NOT_NAMED 1910-11-16 09:00:00 NR 14.8329 112.771 main 390 338 __________P___ -1 14.8329 112.771 4 9 261
1910317N11129 1910 52 WP MM NOT_NAMED 1910-11-16 12:00:00 NR 14.7529 112.321 main 338 291 __________P___ -1 14.7529 112.321 4 9 258
1910317N11129 1910 52 WP MM NOT_NAMED 1910-11-16 15:00:00 NR 14.6432 111.858 main 291 270 __________P___ -1 14.6432 111.858 4 9 256
1910317N11129 1910 52 WP MM NOT_NAMED 1910-11-16 16:00:00 NR 14.6000 111.700 main 270 236 __________O___ -1 14.6000 111.700 4 10 253
1910317N11129 1910 52 WP MM NOT_NAMED 1910-11-16 18:00:00 NR 14.5041 111.378 main 236 178 __________P___ -1 14.5041 111.378 4 10 252
1910317N11129 1910 52 WP MM NOT_NAMED 1910-11-16 21:00:00 NR 14.3400 110.884 main 178 123 __________P___ -1 14.3400 110.884 4 10 250
1910317N11129 1910 52 WP MM NOT_NAMED 1910-11-17 00:00:00 NR 14.1580 110.380 main 123 65 __________P___ -1 14.1580 110.380 4 11 249
1910317N11129 1910 52 WP MM NOT_NAMED 1910-11-17 03:00:00 NR 13.9653 109.870 main 65 43 __________P___ -1 13.9653 109.870 4 11 249
1910317N11129 1910 52 WP MM NOT_NAMED 1910-11-17 04:00:00 NR 13.9000 109.700 main 43 __________O___ -1 13.9000 109.700 4 11 248

Digital Typhoon Data and Search

About IBTrACS Database

This database is a web-friendly format of International Best Track Archive for Climate Stewardship (IBTrACS), a global best track data archive curated by NOAA dating back to 1842.

Updated: 2021-10-08